sensor_id;sensor_type;location;lat;lon;timestamp;pressure;altitude;pressure_sealevel;temperature;humidity
55540;BME280;41384;51.418;7.286;2023-02-28T00:00:25;101203.66;;;2.35;70.80
55540;BME280;41384;51.418;7.286;2023-02-28T00:02:50;101204.50;;;2.36;70.78
55540;BME280;41384;51.418;7.286;2023-02-28T00:05:18;101198.44;;;2.46;70.76
55540;BME280;41384;51.418;7.286;2023-02-28T00:07:44;101209.53;;;2.03;71.21
55540;BME280;41384;51.418;7.286;2023-02-28T00:10:11;101207.91;;;2.25;71.47
55540;BME280;41384;51.418;7.286;2023-02-28T00:12:37;101215.00;;;2.34;71.45
55540;BME280;41384;51.418;7.286;2023-02-28T00:15:08;101211.44;;;2.01;72.43
55540;BME280;41384;51.418;7.286;2023-02-28T00:17:34;101215.34;;;2.18;72.74
55540;BME280;41384;51.418;7.286;2023-02-28T00:20:00;101202.59;;;2.26;71.69
55540;BME280;41384;51.418;7.286;2023-02-28T00:22:28;101210.75;;;2.33;71.24
55540;BME280;41384;51.418;7.286;2023-02-28T00:24:54;101205.06;;;2.28;71.62
55540;BME280;41384;51.418;7.286;2023-02-28T00:27:19;101201.88;;;2.24;71.93
55540;BME280;41384;51.418;7.286;2023-02-28T00:29:46;101206.00;;;2.27;71.89
55540;BME280;41384;51.418;7.286;2023-02-28T00:32:11;101208.13;;;2.22;71.82
55540;BME280;41384;51.418;7.286;2023-02-28T00:34:36;101212.63;;;2.08;72.14
55540;BME280;41384;51.418;7.286;2023-02-28T00:37:04;101205.16;;;2.03;72.41
55540;BME280;41384;51.418;7.286;2023-02-28T00:39:30;101207.19;;;2.11;72.22
55540;BME280;41384;51.418;7.286;2023-02-28T00:41:55;101204.31;;;1.92;73.10
55540;BME280;41384;51.418;7.286;2023-02-28T00:44:21;101208.56;;;1.81;73.64
55540;BME280;41384;51.418;7.286;2023-02-28T00:46:46;101195.13;;;1.63;74.43
55540;BME280;41384;51.418;7.286;2023-02-28T00:49:11;101198.16;;;1.93;73.02
55540;BME280;41384;51.418;7.286;2023-02-28T00:51:37;101202.69;;;1.66;74.78
55540;BME280;41384;51.418;7.286;2023-02-28T00:54:02;101208.72;;;1.67;74.56
55540;BME280;41384;51.418;7.286;2023-02-28T00:56:27;101207.97;;;1.89;73.40
55540;BME280;41384;51.418;7.286;2023-02-28T00:58:53;101211.75;;;1.96;72.91
55540;BME280;41384;51.418;7.286;2023-02-28T01:01:18;101220.50;;;1.84;72.97
55540;BME280;41384;51.418;7.286;2023-02-28T01:03:43;101217.91;;;1.84;73.63
55540;BME280;41384;51.418;7.286;2023-02-28T01:06:08;101220.28;;;1.87;74.05
55540;BME280;41384;51.418;7.286;2023-02-28T01:08:34;101216.22;;;1.47;75.07
55540;BME280;41384;51.418;7.286;2023-02-28T01:11:07;101216.84;;;1.26;75.97
55540;BME280;41384;51.418;7.286;2023-02-28T01:13:32;101215.50;;;0.96;77.24
55540;BME280;41384;51.418;7.286;2023-02-28T01:15:57;101208.84;;;1.65;75.26
55540;BME280;41384;51.418;7.286;2023-02-28T01:18:23;101209.13;;;1.49;74.29
55540;BME280;41384;51.418;7.286;2023-02-28T01:20:49;101213.72;;;0.08;81.93
55540;BME280;41384;51.418;7.286;2023-02-28T01:23:16;101221.94;;;0.14;83.61
55540;BME280;41384;51.418;7.286;2023-02-28T01:25:41;101220.28;;;0.52;82.18
55540;BME280;41384;51.418;7.286;2023-02-28T01:28:07;101224.13;;;0.97;78.86
55540;BME280;41384;51.418;7.286;2023-02-28T01:30:32;101215.78;;;1.29;78.07
55540;BME280;41384;51.418;7.286;2023-02-28T01:32:58;101207.38;;;1.25;76.53
55540;BME280;41384;51.418;7.286;2023-02-28T01:35:23;101211.38;;;1.42;76.53
55540;BME280;41384;51.418;7.286;2023-02-28T01:37:48;101218.78;;;1.36;76.00
55540;BME280;41384;51.418;7.286;2023-02-28T01:40:14;101213.59;;;0.61;79.25
55540;BME280;41384;51.418;7.286;2023-02-28T01:42:39;101212.28;;;0.80;80.27
55540;BME280;41384;51.418;7.286;2023-02-28T01:45:22;101205.72;;;1.24;76.85
55540;BME280;41384;51.418;7.286;2023-02-28T01:47:52;101200.94;;;0.43;80.47
55540;BME280;41384;51.418;7.286;2023-02-28T01:50:23;101198.72;;;1.25;77.15
55540;BME280;41384;51.418;7.286;2023-02-28T01:52:50;101188.41;;;1.36;76.04
55540;BME280;41384;51.418;7.286;2023-02-28T01:55:18;101197.19;;;0.61;79.42
55540;BME280;41384;51.418;7.286;2023-02-28T01:57:49;101191.28;;;0.33;81.20
55540;BME280;41384;51.418;7.286;2023-02-28T02:00:18;101191.69;;;0.01;83.81
55540;BME280;41384;51.418;7.286;2023-02-28T02:02:47;101194.22;;;0.78;81.58
55540;BME280;41384;51.418;7.286;2023-02-28T02:05:20;101187.47;;;1.13;77.52
55540;BME280;41384;51.418;7.286;2023-02-28T02:07:49;101189.69;;;0.56;79.68
55540;BME280;41384;51.418;7.286;2023-02-28T02:10:18;101191.56;;;-0.37;85.20
55540;BME280;41384;51.418;7.286;2023-02-28T02:15:43;101193.56;;;-0.55;87.87
55540;BME280;41384;51.418;7.286;2023-02-28T02:18:48;101189.56;;;-0.33;86.07
55540;BME280;41384;51.418;7.286;2023-02-28T02:21:42;101184.47;;;-0.48;87.42
55540;BME280;41384;51.418;7.286;2023-02-28T02:27:17;101180.59;;;0.11;85.04
55540;BME280;41384;51.418;7.286;2023-02-28T02:33:27;101167.84;;;0.96;78.65
55540;BME280;41384;51.418;7.286;2023-02-28T02:36:18;101171.19;;;0.61;81.85
55540;BME280;41384;51.418;7.286;2023-02-28T02:38:47;101177.72;;;1.04;78.42
55540;BME280;41384;51.418;7.286;2023-02-28T02:41:37;101172.75;;;1.00;77.97
55540;BME280;41384;51.418;7.286;2023-02-28T02:44:30;101181.09;;;0.80;78.85
55540;BME280;41384;51.418;7.286;2023-02-28T02:47:05;101179.31;;;0.43;78.77
55540;BME280;41384;51.418;7.286;2023-02-28T02:49:33;101180.16;;;0.31;81.59
55540;BME280;41384;51.418;7.286;2023-02-28T02:52:03;101177.47;;;-0.07;81.17
55540;BME280;41384;51.418;7.286;2023-02-28T02:54:33;101185.13;;;-0.31;86.40
55540;BME280;41384;51.418;7.286;2023-02-28T02:57:04;101180.44;;;0.52;81.40
55540;BME280;41384;51.418;7.286;2023-02-28T02:59:31;101171.84;;;0.89;79.56
55540;BME280;41384;51.418;7.286;2023-02-28T03:01:59;101177.81;;;1.02;78.12
55540;BME280;41384;51.418;7.286;2023-02-28T03:04:30;101183.72;;;0.80;77.51
55540;BME280;41384;51.418;7.286;2023-02-28T03:06:57;101180.84;;;0.96;78.07
55540;BME280;41384;51.418;7.286;2023-02-28T03:09:23;101178.25;;;0.96;78.77
55540;BME280;41384;51.418;7.286;2023-02-28T03:11:51;101177.88;;;1.13;77.61
55540;BME280;41384;51.418;7.286;2023-02-28T03:17:27;101173.56;;;1.01;77.82
55540;BME280;41384;51.418;7.286;2023-02-28T03:20:30;101178.00;;;1.12;77.63
55540;BME280;41384;51.418;7.286;2023-02-28T03:22:53;101170.47;;;1.20;76.76
55540;BME280;41384;51.418;7.286;2023-02-28T03:28:22;101166.41;;;0.92;77.92
55540;BME280;41384;51.418;7.286;2023-02-28T03:31:06;101168.91;;;1.17;75.18
55540;BME280;41384;51.418;7.286;2023-02-28T03:33:44;101165.25;;;1.20;75.42
55540;BME280;41384;51.418;7.286;2023-02-28T03:36:17;101173.00;;;0.84;76.33
55540;BME280;41384;51.418;7.286;2023-02-28T03:38:51;101170.41;;;1.09;75.28
55540;BME280;41384;51.418;7.286;2023-02-28T03:41:23;101163.50;;;0.96;75.11
55540;BME280;41384;51.418;7.286;2023-02-28T03:43:53;101177.13;;;0.87;75.24
55540;BME280;41384;51.418;7.286;2023-02-28T03:46:22;101172.47;;;0.92;75.07
55540;BME280;41384;51.418;7.286;2023-02-28T03:48:55;101173.09;;;0.46;77.29
55540;BME280;41384;51.418;7.286;2023-02-28T03:51:24;101179.94;;;0.60;74.85
55540;BME280;41384;51.418;7.286;2023-02-28T03:53:59;101174.00;;;0.57;75.50
55540;BME280;41384;51.418;7.286;2023-02-28T03:56:53;101178.19;;;0.84;74.26
55540;BME280;41384;51.418;7.286;2023-02-28T03:59:35;101182.19;;;0.64;73.53
55540;BME280;41384;51.418;7.286;2023-02-28T04:02:02;101176.19;;;-0.40;78.39
55540;BME280;41384;51.418;7.286;2023-02-28T04:04:28;101190.94;;;-0.68;80.39
55540;BME280;41384;51.418;7.286;2023-02-28T04:07:05;101178.50;;;0.04;77.97
55540;BME280;41384;51.418;7.286;2023-02-28T04:09:31;101177.34;;;-0.31;79.15
55540;BME280;41384;51.418;7.286;2023-02-28T04:11:56;101179.03;;;0.22;77.45
55540;BME280;41384;51.418;7.286;2023-02-28T04:14:22;101182.53;;;-0.05;77.93
55540;BME280;41384;51.418;7.286;2023-02-28T04:16:47;101181.59;;;-0.70;81.93
55540;BME280;41384;51.418;7.286;2023-02-28T04:19:14;101181.75;;;-0.59;81.91
55540;BME280;41384;51.418;7.286;2023-02-28T04:24:05;101185.44;;;0.55;75.65
55540;BME280;41384;51.418;7.286;2023-02-28T04:26:35;101188.44;;;0.62;75.70
55540;BME280;41384;51.418;7.286;2023-02-28T04:29:02;101187.16;;;0.67;75.67
55540;BME280;41384;51.418;7.286;2023-02-28T04:31:28;101178.06;;;0.62;75.73
55540;BME280;41384;51.418;7.286;2023-02-28T04:33:53;101187.03;;;0.19;78.26
55540;BME280;41384;51.418;7.286;2023-02-28T04:36:19;101195.31;;;-0.02;77.45
55540;BME280;41384;51.418;7.286;2023-02-28T04:38:45;101182.56;;;-0.59;79.83
55540;BME280;41384;51.418;7.286;2023-02-28T04:41:11;101197.69;;;-0.65;81.02
55540;BME280;41384;51.418;7.286;2023-02-28T04:43:37;101193.47;;;-1.08;82.63
55540;BME280;41384;51.418;7.286;2023-02-28T04:46:04;101196.78;;;-1.48;86.50
55540;BME280;41384;51.418;7.286;2023-02-28T04:48:32;101196.28;;;-0.84;86.08
55540;BME280;41384;51.418;7.286;2023-02-28T04:51:03;101201.44;;;-0.56;82.93
55540;BME280;41384;51.418;7.286;2023-02-28T04:53:29;101200.78;;;-0.73;83.54
55540;BME280;41384;51.418;7.286;2023-02-28T04:55:55;101196.72;;;-0.77;83.34
55540;BME280;41384;51.418;7.286;2023-02-28T04:58:20;101196.75;;;-0.24;80.82
55540;BME280;41384;51.418;7.286;2023-02-28T05:00:48;101197.38;;;-0.07;78.01
55540;BME280;41384;51.418;7.286;2023-02-28T05:03:13;101201.00;;;-0.23;78.32
55540;BME280;41384;51.418;7.286;2023-02-28T05:05:38;101188.88;;;-0.22;78.72
55540;BME280;41384;51.418;7.286;2023-02-28T05:08:04;101202.09;;;0.26;76.99
55540;BME280;41384;51.418;7.286;2023-02-28T05:10:30;101202.09;;;0.26;75.93
55540;BME280;41384;51.418;7.286;2023-02-28T05:12:55;101210.69;;;0.40;75.36
55540;BME280;41384;51.418;7.286;2023-02-28T05:15:20;101210.66;;;-0.38;77.67
55540;BME280;41384;51.418;7.286;2023-02-28T05:17:46;101210.47;;;-0.22;77.76
55540;BME280;41384;51.418;7.286;2023-02-28T05:20:11;101214.66;;;0.20;76.82
55540;BME280;41384;51.418;7.286;2023-02-28T05:22:38;101209.16;;;0.24;75.70
55540;BME280;41384;51.418;7.286;2023-02-28T05:25:04;101210.50;;;0.04;75.90
55540;BME280;41384;51.418;7.286;2023-02-28T05:27:30;101207.16;;;0.15;75.92
55540;BME280;41384;51.418;7.286;2023-02-28T05:29:56;101205.78;;;-0.17;77.41
55540;BME280;41384;51.418;7.286;2023-02-28T05:32:21;101215.25;;;-0.16;77.76
55540;BME280;41384;51.418;7.286;2023-02-28T05:34:46;101213.03;;;-0.35;78.28
55540;BME280;41384;51.418;7.286;2023-02-28T05:37:12;101211.63;;;-0.13;76.48
55540;BME280;41384;51.418;7.286;2023-02-28T05:39:38;101221.91;;;0.02;76.03
55540;BME280;41384;51.418;7.286;2023-02-28T05:42:04;101224.84;;;0.10;75.97
55540;BME280;41384;51.418;7.286;2023-02-28T05:44:29;101219.69;;;-0.18;76.65
55540;BME280;41384;51.418;7.286;2023-02-28T05:46:54;101216.63;;;-0.50;78.25
55540;BME280;41384;51.418;7.286;2023-02-28T05:49:20;101224.31;;;-0.49;78.31
55540;BME280;41384;51.418;7.286;2023-02-28T05:51:45;101226.47;;;-0.15;78.07
55540;BME280;41384;51.418;7.286;2023-02-28T05:54:10;101220.34;;;-0.14;76.07
55540;BME280;41384;51.418;7.286;2023-02-28T05:56:35;101231.13;;;-1.03;79.85
55540;BME280;41384;51.418;7.286;2023-02-28T05:59:03;101235.75;;;-0.66;80.19
55540;BME280;41384;51.418;7.286;2023-02-28T06:01:37;101233.97;;;-0.93;80.68
55540;BME280;41384;51.418;7.286;2023-02-28T06:04:05;101232.69;;;-0.58;81.10
55540;BME280;41384;51.418;7.286;2023-02-28T06:06:31;101227.81;;;-0.22;78.39
55540;BME280;41384;51.418;7.286;2023-02-28T06:08:57;101229.63;;;-0.92;79.15
55540;BME280;41384;51.418;7.286;2023-02-28T06:11:22;101232.19;;;-1.49;86.43
55540;BME280;41384;51.418;7.286;2023-02-28T06:13:54;101239.91;;;-0.36;78.54
55540;BME280;41384;51.418;7.286;2023-02-28T06:16:20;101241.06;;;-0.27;77.90
55540;BME280;41384;51.418;7.286;2023-02-28T06:18:45;101233.53;;;-0.17;77.07
55540;BME280;41384;51.418;7.286;2023-02-28T06:21:12;101243.50;;;-0.11;76.88
55540;BME280;41384;51.418;7.286;2023-02-28T06:23:37;101248.53;;;-0.63;79.97
55540;BME280;41384;51.418;7.286;2023-02-28T06:26:03;101247.59;;;-0.34;78.10
55540;BME280;41384;51.418;7.286;2023-02-28T06:28:28;101258.84;;;-0.48;79.68
55540;BME280;41384;51.418;7.286;2023-02-28T06:30:53;101248.25;;;-0.31;78.18
55540;BME280;41384;51.418;7.286;2023-02-28T06:33:19;101252.03;;;-0.09;76.69
55540;BME280;41384;51.418;7.286;2023-02-28T06:35:46;101260.81;;;-0.24;77.30
55540;BME280;41384;51.418;7.286;2023-02-28T06:38:11;101255.81;;;-0.27;77.90
55540;BME280;41384;51.418;7.286;2023-02-28T06:40:37;101257.22;;;-0.09;77.19
55540;BME280;41384;51.418;7.286;2023-02-28T06:43:02;101255.75;;;-0.13;76.90
55540;BME280;41384;51.418;7.286;2023-02-28T06:45:28;101258.03;;;-0.08;76.86
55540;BME280;41384;51.418;7.286;2023-02-28T06:47:53;101258.75;;;-0.06;77.02
55540;BME280;41384;51.418;7.286;2023-02-28T06:50:19;101261.75;;;-0.25;77.51
55540;BME280;41384;51.418;7.286;2023-02-28T06:52:45;101268.88;;;-0.29;79.15
55540;BME280;41384;51.418;7.286;2023-02-28T06:55:11;101263.25;;;0.05;77.56
55540;BME280;41384;51.418;7.286;2023-02-28T06:57:36;101270.81;;;-0.05;77.78
55540;BME280;41384;51.418;7.286;2023-02-28T07:00:07;101269.50;;;0.02;77.46
55540;BME280;41384;51.418;7.286;2023-02-28T07:02:35;101269.28;;;0.18;76.67
55540;BME280;41384;51.418;7.286;2023-02-28T07:05:00;101268.06;;;-0.30;79.38
55540;BME280;41384;51.418;7.286;2023-02-28T07:07:25;101270.16;;;-0.22;80.25
55540;BME280;41384;51.418;7.286;2023-02-28T07:09:51;101272.94;;;0.16;77.85
55540;BME280;41384;51.418;7.286;2023-02-28T07:12:16;101274.38;;;0.07;77.56
55540;BME280;41384;51.418;7.286;2023-02-28T07:14:41;101275.72;;;-0.01;78.64
55540;BME280;41384;51.418;7.286;2023-02-28T07:17:08;101277.50;;;0.38;76.74
55540;BME280;41384;51.418;7.286;2023-02-28T07:19:33;101274.50;;;0.44;76.36
55540;BME280;41384;51.418;7.286;2023-02-28T07:21:59;101278.56;;;0.48;76.48
55540;BME280;41384;51.418;7.286;2023-02-28T07:24:24;101278.00;;;0.17;77.92
55540;BME280;41384;51.418;7.286;2023-02-28T07:26:53;101273.97;;;0.26;77.67
55540;BME280;41384;51.418;7.286;2023-02-28T07:29:18;101276.38;;;0.42;76.68
55540;BME280;41384;51.418;7.286;2023-02-28T07:31:43;101276.44;;;0.02;78.54
55540;BME280;41384;51.418;7.286;2023-02-28T07:34:08;101284.16;;;0.42;76.65
55540;BME280;41384;51.418;7.286;2023-02-28T07:36:34;101281.56;;;0.68;74.63
55540;BME280;41384;51.418;7.286;2023-02-28T07:38:59;101282.91;;;0.35;77.02
55540;BME280;41384;51.418;7.286;2023-02-28T07:41:24;101278.34;;;0.64;75.51
55540;BME280;41384;51.418;7.286;2023-02-28T07:43:53;101280.34;;;0.61;75.34
55540;BME280;41384;51.418;7.286;2023-02-28T07:46:20;101286.22;;;0.37;76.65
55540;BME280;41384;51.418;7.286;2023-02-28T07:48:46;101283.53;;;0.38;77.30
55540;BME280;41384;51.418;7.286;2023-02-28T07:51:11;101292.47;;;0.60;76.50
55540;BME280;41384;51.418;7.286;2023-02-28T07:53:37;101290.59;;;0.62;76.36
55540;BME280;41384;51.418;7.286;2023-02-28T07:56:03;101286.78;;;0.68;76.39
55540;BME280;41384;51.418;7.286;2023-02-28T07:58:29;101288.84;;;0.37;77.99
55540;BME280;41384;51.418;7.286;2023-02-28T08:00:55;101284.66;;;0.08;77.52
55540;BME280;41384;51.418;7.286;2023-02-28T08:03:21;101292.84;;;0.02;78.47
55540;BME280;41384;51.418;7.286;2023-02-28T08:05:47;101289.94;;;0.07;78.99
55540;BME280;41384;51.418;7.286;2023-02-28T08:08:14;101301.31;;;0.83;76.43
55540;BME280;41384;51.418;7.286;2023-02-28T08:10:40;101297.56;;;1.00;74.77
55540;BME280;41384;51.418;7.286;2023-02-28T08:13:06;101297.59;;;0.62;74.91
55540;BME280;41384;51.418;7.286;2023-02-28T08:15:31;101300.16;;;0.75;74.10
55540;BME280;41384;51.418;7.286;2023-02-28T08:17:57;101294.53;;;1.31;74.01
55540;BME280;41384;51.418;7.286;2023-02-28T08:20:23;101293.75;;;1.17;73.00
55540;BME280;41384;51.418;7.286;2023-02-28T08:22:49;101297.59;;;1.25;73.19
55540;BME280;41384;51.418;7.286;2023-02-28T08:25:14;101298.06;;;0.93;74.00
55540;BME280;41384;51.418;7.286;2023-02-28T08:27:40;101292.59;;;1.22;74.34
55540;BME280;41384;51.418;7.286;2023-02-28T08:30:05;101299.78;;;1.18;74.74
55540;BME280;41384;51.418;7.286;2023-02-28T08:32:32;101286.84;;;1.29;73.73
55540;BME280;41384;51.418;7.286;2023-02-28T08:34:58;101289.34;;;1.31;73.26
55540;BME280;41384;51.418;7.286;2023-02-28T08:37:24;101296.78;;;1.49;72.58
55540;BME280;41384;51.418;7.286;2023-02-28T08:39:49;101283.00;;;1.35;72.36
55540;BME280;41384;51.418;7.286;2023-02-28T08:42:14;101292.88;;;1.30;72.53
55540;BME280;41384;51.418;7.286;2023-02-28T08:44:40;101293.94;;;0.77;71.69
55540;BME280;41384;51.418;7.286;2023-02-28T08:47:05;101293.72;;;1.30;71.88
55540;BME280;41384;51.418;7.286;2023-02-28T08:49:31;101288.50;;;1.43;71.72
55540;BME280;41384;51.418;7.286;2023-02-28T08:51:56;101294.56;;;1.55;71.04
55540;BME280;41384;51.418;7.286;2023-02-28T08:54:22;101296.59;;;1.39;72.03
55540;BME280;41384;51.418;7.286;2023-02-28T08:56:48;101295.88;;;1.37;71.42
55540;BME280;41384;51.418;7.286;2023-02-28T08:59:13;101290.69;;;1.61;70.95
55540;BME280;41384;51.418;7.286;2023-02-28T09:01:38;101293.34;;;1.72;69.98
55540;BME280;41384;51.418;7.286;2023-02-28T09:04:04;101297.44;;;1.64;69.94
55540;BME280;41384;51.418;7.286;2023-02-28T09:06:32;101292.00;;;1.91;69.41
55540;BME280;41384;51.418;7.286;2023-02-28T09:08:58;101285.59;;;1.84;69.12
55540;BME280;41384;51.418;7.286;2023-02-28T09:11:24;101290.53;;;1.75;68.91
55540;BME280;41384;51.418;7.286;2023-02-28T09:13:49;101291.03;;;1.81;68.64
55540;BME280;41384;51.418;7.286;2023-02-28T09:16:15;101282.56;;;2.01;67.42
55540;BME280;41384;51.418;7.286;2023-02-28T09:18:41;101280.38;;;1.84;67.54
55540;BME280;41384;51.418;7.286;2023-02-28T09:21:09;101285.81;;;1.81;67.00
55540;BME280;41384;51.418;7.286;2023-02-28T09:23:35;101286.34;;;1.97;65.39
55540;BME280;41384;51.418;7.286;2023-02-28T09:26:03;101290.50;;;2.00;66.12
55540;BME280;41384;51.418;7.286;2023-02-28T09:28:28;101290.47;;;1.88;65.61
55540;BME280;41384;51.418;7.286;2023-02-28T09:30:54;101277.34;;;2.01;64.79
55540;BME280;41384;51.418;7.286;2023-02-28T09:33:20;101279.63;;;2.06;64.41
55540;BME280;41384;51.418;7.286;2023-02-28T09:35:49;101281.06;;;2.10;63.27
55540;BME280;41384;51.418;7.286;2023-02-28T09:38:16;101280.84;;;2.13;62.80
55540;BME280;41384;51.418;7.286;2023-02-28T09:40:53;101284.31;;;2.25;62.58
55540;BME280;41384;51.418;7.286;2023-02-28T09:43:22;101281.94;;;2.33;62.06
55540;BME280;41384;51.418;7.286;2023-02-28T09:45:52;101279.47;;;2.43;61.90
55540;BME280;41384;51.418;7.286;2023-02-28T09:48:26;101279.59;;;2.53;61.14
55540;BME280;41384;51.418;7.286;2023-02-28T09:51:00;101281.16;;;2.67;61.03
55540;BME280;41384;51.418;7.286;2023-02-28T09:53:36;101289.09;;;2.54;61.31
55540;BME280;41384;51.418;7.286;2023-02-28T09:56:07;101290.25;;;2.50;60.98
55540;BME280;41384;51.418;7.286;2023-02-28T09:58:42;101280.06;;;2.36;60.51
55540;BME280;41384;51.418;7.286;2023-02-28T10:01:20;101286.22;;;2.35;59.87
55540;BME280;41384;51.418;7.286;2023-02-28T10:03:56;101291.91;;;2.40;59.74
55540;BME280;41384;51.418;7.286;2023-02-28T10:06:27;101287.28;;;1.96;59.97
55540;BME280;41384;51.418;7.286;2023-02-28T10:09:02;101286.31;;;2.22;60.22
55540;BME280;41384;51.418;7.286;2023-02-28T10:11:29;101285.13;;;2.37;58.85
55540;BME280;41384;51.418;7.286;2023-02-28T10:14:02;101277.78;;;2.31;58.38
55540;BME280;41384;51.418;7.286;2023-02-28T10:16:40;101288.38;;;2.63;57.88
55540;BME280;41384;51.418;7.286;2023-02-28T10:19:17;101275.47;;;2.73;57.03
55540;BME280;41384;51.418;7.286;2023-02-28T10:22:11;101282.34;;;2.74;56.62
55540;BME280;41384;51.418;7.286;2023-02-28T10:24:42;101279.00;;;2.61;56.10
55540;BME280;41384;51.418;7.286;2023-02-28T10:27:13;101281.50;;;2.85;56.78
55540;BME280;41384;51.418;7.286;2023-02-28T10:29:40;101275.19;;;3.11;57.19
55540;BME280;41384;51.418;7.286;2023-02-28T10:32:12;101267.84;;;3.04;55.85
55540;BME280;41384;51.418;7.286;2023-02-28T10:34:39;101266.19;;;3.15;55.83
55540;BME280;41384;51.418;7.286;2023-02-28T10:37:05;101259.75;;;3.19;54.00
55540;BME280;41384;51.418;7.286;2023-02-28T10:39:38;101254.69;;;3.17;53.76
55540;BME280;41384;51.418;7.286;2023-02-28T10:42:05;101259.88;;;3.29;51.35
55540;BME280;41384;51.418;7.286;2023-02-28T10:44:43;101256.13;;;3.43;51.70
55540;BME280;41384;51.418;7.286;2023-02-28T10:47:14;101245.72;;;3.31;52.21
55540;BME280;41384;51.418;7.286;2023-02-28T10:49:47;101235.75;;;3.36;51.50
55540;BME280;41384;51.418;7.286;2023-02-28T10:52:12;101248.59;;;3.28;51.06
55540;BME280;41384;51.418;7.286;2023-02-28T10:54:38;101238.91;;;3.52;50.76
55540;BME280;41384;51.418;7.286;2023-02-28T10:57:19;101246.28;;;3.46;51.71
55540;BME280;41384;51.418;7.286;2023-02-28T10:59:45;101245.59;;;3.44;51.09
55540;BME280;41384;51.418;7.286;2023-02-28T11:04:58;101245.34;;;3.47;49.49
55540;BME280;41384;51.418;7.286;2023-02-28T11:07:25;101242.16;;;3.32;49.26
55540;BME280;41384;51.418;7.286;2023-02-28T11:09:52;101244.84;;;3.54;48.91
55540;BME280;41384;51.418;7.286;2023-02-28T11:12:38;101240.22;;;3.57;50.12
55540;BME280;41384;51.418;7.286;2023-02-28T11:15:30;101247.19;;;3.24;50.43
55540;BME280;41384;51.418;7.286;2023-02-28T11:18:01;101244.28;;;3.71;49.35
55540;BME280;41384;51.418;7.286;2023-02-28T11:20:30;101241.81;;;3.91;49.04
55540;BME280;41384;51.418;7.286;2023-02-28T11:22:58;101241.06;;;4.00;48.66
55540;BME280;41384;51.418;7.286;2023-02-28T11:27:56;101243.34;;;4.15;48.28
55540;BME280;41384;51.418;7.286;2023-02-28T11:30:24;101239.78;;;3.94;48.86
55540;BME280;41384;51.418;7.286;2023-02-28T11:32:50;101237.53;;;3.90;47.15
55540;BME280;41384;51.418;7.286;2023-02-28T11:35:33;101237.94;;;3.85;48.76
55540;BME280;41384;51.418;7.286;2023-02-28T11:38:00;101234.75;;;4.03;49.14
55540;BME280;41384;51.418;7.286;2023-02-28T11:40:42;101242.94;;;4.41;49.53
55540;BME280;41384;51.418;7.286;2023-02-28T11:43:30;101223.50;;;4.33;49.48
55540;BME280;41384;51.418;7.286;2023-02-28T11:46:12;101229.97;;;4.39;49.21
55540;BME280;41384;51.418;7.286;2023-02-28T11:48:54;101227.78;;;4.34;48.62
55540;BME280;41384;51.418;7.286;2023-02-28T11:51:34;101225.75;;;4.48;48.80
55540;BME280;41384;51.418;7.286;2023-02-28T11:54:17;101231.03;;;4.58;48.51
55540;BME280;41384;51.418;7.286;2023-02-28T11:56:48;101236.09;;;4.49;48.09
55540;BME280;41384;51.418;7.286;2023-02-28T11:59:29;101220.47;;;4.69;48.27
55540;BME280;41384;51.418;7.286;2023-02-28T12:02:24;101224.97;;;4.57;47.78
55540;BME280;41384;51.418;7.286;2023-02-28T12:06:15;101213.97;;;4.53;47.96
55540;BME280;41384;51.418;7.286;2023-02-28T12:11:11;101216.56;;;4.53;48.62
55540;BME280;41384;51.418;7.286;2023-02-28T12:13:51;101211.72;;;4.49;48.22
55540;BME280;41384;51.418;7.286;2023-02-28T12:16:27;101211.50;;;4.62;48.68
55540;BME280;41384;51.418;7.286;2023-02-28T12:19:09;101212.22;;;4.64;48.58
55540;BME280;41384;51.418;7.286;2023-02-28T12:24:59;101203.63;;;4.52;48.38
55540;BME280;41384;51.418;7.286;2023-02-28T12:27:29;101195.94;;;4.60;48.04
55540;BME280;41384;51.418;7.286;2023-02-28T12:30:02;101197.16;;;4.56;49.34
55540;BME280;41384;51.418;7.286;2023-02-28T12:32:41;101194.28;;;4.59;48.29
55540;BME280;41384;51.418;7.286;2023-02-28T12:35:17;101191.13;;;4.56;47.49
55540;BME280;41384;51.418;7.286;2023-02-28T12:40:22;101173.69;;;4.76;50.72
55540;BME280;41384;51.418;7.286;2023-02-28T12:43:00;101168.97;;;4.60;48.37
55540;BME280;41384;51.418;7.286;2023-02-28T12:45:39;101162.06;;;4.49;47.82
55540;BME280;41384;51.418;7.286;2023-02-28T12:48:08;101158.69;;;4.78;47.41
55540;BME280;41384;51.418;7.286;2023-02-28T12:50:36;101149.44;;;4.74;48.20
55540;BME280;41384;51.418;7.286;2023-02-28T12:53:06;101154.00;;;4.81;48.22
55540;BME280;41384;51.418;7.286;2023-02-28T12:55:52;101154.19;;;5.00;48.71
55540;BME280;41384;51.418;7.286;2023-02-28T13:09:27;101136.41;;;4.93;48.06
55540;BME280;41384;51.418;7.286;2023-02-28T13:11:55;101142.00;;;4.79;47.92
55540;BME280;41384;51.418;7.286;2023-02-28T13:19:40;101120.84;;;5.02;48.46
55540;BME280;41384;51.418;7.286;2023-02-28T13:22:20;101122.38;;;4.94;48.57
55540;BME280;41384;51.418;7.286;2023-02-28T13:27:24;101131.44;;;5.20;47.98
55540;BME280;41384;51.418;7.286;2023-02-28T13:29:56;101133.94;;;5.21;47.84
55540;BME280;41384;51.418;7.286;2023-02-28T13:52:50;101117.66;;;5.47;48.43
55540;BME280;41384;51.418;7.286;2023-02-28T13:55:28;101112.56;;;5.06;48.24
55540;BME280;41384;51.418;7.286;2023-02-28T14:01:27;101111.75;;;5.25;48.09
55540;BME280;41384;51.418;7.286;2023-02-28T14:06:33;101106.25;;;4.99;47.94
55540;BME280;41384;51.418;7.286;2023-02-28T14:09:03;101105.28;;;5.00;48.03
55540;BME280;41384;51.418;7.286;2023-02-28T14:11:35;101110.66;;;4.89;48.82
55540;BME280;41384;51.418;7.286;2023-02-28T14:14:03;101105.69;;;4.95;48.80
55540;BME280;41384;51.418;7.286;2023-02-28T14:16:40;101101.56;;;5.13;48.27
55540;BME280;41384;51.418;7.286;2023-02-28T14:19:15;101104.03;;;5.14;48.27
55540;BME280;41384;51.418;7.286;2023-02-28T14:25:08;101099.75;;;5.33;48.56
55540;BME280;41384;51.418;7.286;2023-02-28T14:30:37;101098.91;;;5.42;48.66
55540;BME280;41384;51.418;7.286;2023-02-28T14:33:31;101095.72;;;5.48;48.22